createdAt,value
2022-12-06T00:00:58.217Z,85.87
2022-12-06T00:01:58.212Z,85.76
2022-12-06T00:02:58.273Z,85.97
2022-12-06T00:03:58.157Z,86.28
2022-12-06T00:04:58.158Z,86.64
2022-12-06T00:05:58.162Z,87.96
2022-12-06T00:06:58.161Z,88.85
2022-12-06T00:07:58.242Z,89.78
2022-12-06T00:08:58.162Z,90.58
2022-12-06T00:09:58.422Z,90.85
2022-12-06T00:10:58.156Z,91.24
2022-12-06T00:11:58.160Z,91.38
2022-12-06T00:12:58.196Z,90.39
2022-12-06T00:13:58.156Z,89.83
2022-12-06T00:14:58.161Z,88.92
2022-12-06T00:15:58.213Z,88.39
2022-12-06T00:16:58.280Z,88.01
2022-12-06T00:17:58.197Z,87.43
2022-12-06T00:18:58.162Z,87.19
2022-12-06T00:19:58.410Z,87.06
2022-12-06T00:20:58.180Z,86.62
2022-12-06T00:21:58.184Z,86.19
2022-12-06T00:22:58.268Z,85.95
2022-12-06T00:23:58.225Z,85.61
2022-12-06T00:24:58.180Z,85.35
2022-12-06T00:25:58.175Z,85.22
2022-12-06T00:26:58.175Z,85.04
2022-12-06T00:27:58.185Z,85
2022-12-06T00:28:58.172Z,85.12
2022-12-06T00:29:58.400Z,85.42
2022-12-06T00:30:58.173Z,85.5
2022-12-06T00:31:58.257Z,85.54
2022-12-06T00:32:58.195Z,85.33
2022-12-06T00:33:58.182Z,85.12
2022-12-06T00:34:58.184Z,85.22
2022-12-06T00:35:58.178Z,85.75
2022-12-06T00:36:58.182Z,86.09
2022-12-06T00:37:58.195Z,86.25
2022-12-06T00:38:58.177Z,86.33
2022-12-06T00:39:58.444Z,86.6
2022-12-06T00:40:58.189Z,86.71
2022-12-06T00:41:58.177Z,86.87
2022-12-06T00:42:58.193Z,86.68
2022-12-06T00:43:58.183Z,86.47
2022-12-06T00:44:58.169Z,86.54
2022-12-06T00:45:58.387Z,86.52
2022-12-06T00:46:58.176Z,86.24
2022-12-06T00:47:58.184Z,86.39
2022-12-06T00:48:58.180Z,86.45
2022-12-06T00:49:58.385Z,86.5
2022-12-06T00:50:58.173Z,86.77
2022-12-06T00:51:58.185Z,86.38
2022-12-06T00:52:58.193Z,86.32
2022-12-06T00:53:58.173Z,86.47
2022-12-06T00:54:58.184Z,87.52
2022-12-06T00:55:58.181Z,88.12
2022-12-06T00:56:58.184Z,88.64
2022-12-06T00:57:58.189Z,88.22
2022-12-06T00:58:58.187Z,88.05
2022-12-06T00:59:58.424Z,89.08
2022-12-06T01:00:58.260Z,90.16
2022-12-06T01:01:58.179Z,91.24
2022-12-06T01:02:58.243Z,90.67
2022-12-06T01:03:58.191Z,89.94
2022-12-06T01:04:58.182Z,89.29
2022-12-06T01:05:58.177Z,88.55
2022-12-06T01:06:58.179Z,88.06
2022-12-06T01:07:58.292Z,87.76
2022-12-06T01:08:58.239Z,87.41
2022-12-06T01:09:58.528Z,87.12
2022-12-06T01:10:58.181Z,87.11
2022-12-06T01:11:58.180Z,87.15
2022-12-06T01:12:58.188Z,87.23
2022-12-06T01:13:58.173Z,87.23
2022-12-06T01:14:58.176Z,86.97
2022-12-06T01:15:58.201Z,86.92
2022-12-06T01:16:58.285Z,86.68
2022-12-06T01:17:58.173Z,87.32
2022-12-06T01:18:58.157Z,87.43
2022-12-06T01:19:58.574Z,87.43
2022-12-06T01:20:58.159Z,88.21
2022-12-06T01:21:58.166Z,89.49
2022-12-06T01:22:58.196Z,89.49
2022-12-06T01:23:58.174Z,89.96
2022-12-06T01:24:58.162Z,89.98
2022-12-06T01:25:58.162Z,90.18
2022-12-06T01:26:58.160Z,90.08
2022-12-06T01:27:58.172Z,90.17
2022-12-06T01:28:58.160Z,89.67
2022-12-06T01:29:58.394Z,89.75
2022-12-06T01:30:58.276Z,89.55
2022-12-06T01:31:58.246Z,90.3
2022-12-06T01:32:58.184Z,89.96
2022-12-06T01:33:58.162Z,90.09
2022-12-06T01:34:58.182Z,89.91
2022-12-06T01:35:58.161Z,89.76
2022-12-06T01:36:58.173Z,89.76
2022-12-06T01:38:03.014Z,89.78
2022-12-06T01:38:58.167Z,89.62
2022-12-06T01:39:58.475Z,89.32
2022-12-06T01:40:58.184Z,89.18
2022-12-06T01:41:58.177Z,89.05
2022-12-06T01:42:58.201Z,89.21
2022-12-06T01:43:58.182Z,89
2022-12-06T01:44:58.195Z,88.11
2022-12-06T01:45:58.235Z,87.54
2022-12-06T01:46:58.181Z,87.7
2022-12-06T01:47:58.188Z,87.67
2022-12-06T01:48:58.178Z,87.99
2022-12-06T01:49:58.519Z,87.87
2022-12-06T01:50:58.250Z,87.68
2022-12-06T01:51:58.195Z,87.68
2022-12-06T01:52:58.188Z,86.88
2022-12-06T01:53:58.170Z,87.47
2022-12-06T01:54:58.239Z,88.13
2022-12-06T01:55:58.173Z,87.93
2022-12-06T01:56:58.173Z,87.33
2022-12-06T01:57:58.193Z,87.12
2022-12-06T01:58:58.178Z,87.16
2022-12-06T01:59:58.569Z,87.12
2022-12-06T02:00:58.235Z,86.69
2022-12-06T02:01:58.366Z,86.55
2022-12-06T02:02:58.282Z,86.45
2022-12-06T02:03:58.178Z,86.19
2022-12-06T02:04:58.172Z,86.07
2022-12-06T02:05:58.174Z,86.07
2022-12-06T02:06:58.186Z,86.29
2022-12-06T02:07:58.254Z,86.07
2022-12-06T02:08:58.184Z,86.01
2022-12-06T02:09:58.607Z,85.72
2022-12-06T02:10:58.190Z,85.7
2022-12-06T02:11:58.168Z,86.01
2022-12-06T02:12:58.186Z,85.92
2022-12-06T02:13:58.181Z,85.51
2022-12-06T02:14:58.170Z,85.32
2022-12-06T02:15:58.195Z,84.94
2022-12-06T02:16:58.232Z,84.81
2022-12-06T02:17:58.247Z,84.79
2022-12-06T02:18:58.178Z,84.99
2022-12-06T02:19:58.423Z,85.02
2022-12-06T02:20:58.182Z,84.96
2022-12-06T02:21:58.182Z,84.7
2022-12-06T02:22:58.187Z,84.81
2022-12-06T02:23:58.171Z,85.57
2022-12-06T02:24:58.185Z,85.54
2022-12-06T02:25:58.178Z,85.03
2022-12-06T02:26:58.171Z,85.06
2022-12-06T02:27:58.188Z,84.67
2022-12-06T02:28:58.188Z,84.42
2022-12-06T02:29:58.519Z,84.25
2022-12-06T02:30:58.259Z,83.97
2022-12-06T02:31:58.162Z,84.04
2022-12-06T02:32:58.171Z,84.2
2022-12-06T02:33:58.161Z,83.97
2022-12-06T02:34:58.176Z,83.98
2022-12-06T02:35:58.155Z,83.93
2022-12-06T02:36:58.158Z,84.17
2022-12-06T02:37:58.185Z,84.64
2022-12-06T02:38:58.162Z,84.45
2022-12-06T02:39:58.497Z,84.31
2022-12-06T02:40:58.233Z,84.34
2022-12-06T02:41:58.162Z,84.95
2022-12-06T02:42:58.189Z,85.21
2022-12-06T02:43:58.158Z,85.04
2022-12-06T02:44:58.162Z,84.65
2022-12-06T02:45:58.219Z,84.81
2022-12-06T02:46:58.157Z,84.63
2022-12-06T02:47:58.188Z,84.51
2022-12-06T02:48:58.167Z,84.19
2022-12-06T02:49:58.599Z,84.09
2022-12-06T02:50:58.157Z,84.39
2022-12-06T02:51:58.159Z,84.25
2022-12-06T02:52:58.185Z,84.42
2022-12-06T02:53:58.177Z,84.53
2022-12-06T02:54:58.187Z,84.83
2022-12-06T02:55:58.164Z,84.68
2022-12-06T02:56:58.168Z,84.5
2022-12-06T02:57:58.196Z,84.53
2022-12-06T02:58:58.172Z,84.37
2022-12-06T02:59:58.360Z,84.19
2022-12-06T03:00:58.188Z,84.13
2022-12-06T03:01:58.286Z,84.74
2022-12-06T03:02:58.281Z,84.78
2022-12-06T03:03:58.233Z,84.9
2022-12-06T03:04:58.182Z,84.78
2022-12-06T03:05:58.181Z,84.76
2022-12-06T03:06:58.173Z,84.76
2022-12-06T03:07:58.243Z,85.45
2022-12-06T03:08:58.172Z,86
2022-12-06T03:09:58.683Z,86.55
2022-12-06T03:10:58.179Z,86.01
2022-12-06T03:11:58.261Z,85.77
2022-12-06T03:12:58.197Z,86.15
2022-12-06T03:13:58.181Z,86.3
2022-12-06T03:14:58.181Z,86.25
2022-12-06T03:15:58.230Z,86
2022-12-06T03:16:58.177Z,85.62
2022-12-06T03:17:58.180Z,85.61
2022-12-06T03:18:58.163Z,85.33
2022-12-06T03:19:58.371Z,84.83
2022-12-06T03:20:58.168Z,84.76
2022-12-06T03:21:58.173Z,84.75
2022-12-06T03:22:58.192Z,84.79
2022-12-06T03:23:58.169Z,84.99
2022-12-06T03:24:58.172Z,84.81
2022-12-06T03:25:58.190Z,84.26
2022-12-06T03:26:58.218Z,84.13
2022-12-06T03:27:58.174Z,83.88
2022-12-06T03:28:58.175Z,83.84
2022-12-06T03:29:58.433Z,83.65
2022-12-06T03:30:58.301Z,83.99
2022-12-06T03:31:58.181Z,84.25
2022-12-06T03:32:58.194Z,84.25
2022-12-06T03:33:58.222Z,84.44
2022-12-06T03:34:58.179Z,84.46
2022-12-06T03:35:58.182Z,84.98
2022-12-06T03:36:58.186Z,84.82
2022-12-06T03:37:58.207Z,84.83
2022-12-06T03:38:58.175Z,85.27
2022-12-06T03:39:58.454Z,84.92
2022-12-06T03:40:58.177Z,84.8
2022-12-06T03:41:58.172Z,84.81
2022-12-06T03:42:58.186Z,85.19
2022-12-06T03:43:58.181Z,86.11
2022-12-06T03:44:58.173Z,87.07
2022-12-06T03:45:58.258Z,88
2022-12-06T03:46:58.286Z,88.04
2022-12-06T03:47:58.195Z,88.42
2022-12-06T03:48:58.161Z,89.19
2022-12-06T03:49:58.668Z,89.68
2022-12-06T03:50:58.698Z,89.28
2022-12-06T03:51:58.157Z,89.75
2022-12-06T03:52:58.187Z,89.71
2022-12-06T03:53:58.169Z,89.53
2022-12-06T03:54:58.179Z,89.49
2022-12-06T03:55:58.165Z,89.05
2022-12-06T03:56:58.160Z,88.85
2022-12-06T03:57:58.172Z,88.63
2022-12-06T03:58:58.163Z,88.07
2022-12-06T03:59:58.495Z,87.4
2022-12-06T04:00:58.173Z,88.26
2022-12-06T04:01:58.270Z,90.52
2022-12-06T04:02:58.185Z,90.14
2022-12-06T04:03:58.199Z,89.64
2022-12-06T04:04:58.155Z,89.25
2022-12-06T04:05:58.162Z,88.59
2022-12-06T04:06:58.161Z,87.84
2022-12-06T04:07:58.258Z,88.14
2022-12-06T04:08:58.159Z,88.21
2022-12-06T04:09:58.430Z,88.38
2022-12-06T04:10:58.171Z,88.55
2022-12-06T04:11:58.161Z,88.75
2022-12-06T04:12:58.234Z,88.32
2022-12-06T04:13:58.186Z,87.79
2022-12-06T04:14:58.179Z,87.18
2022-12-06T04:15:58.234Z,86.71
2022-12-06T04:16:58.179Z,86.72
2022-12-06T04:17:58.193Z,86.59
2022-12-06T04:18:58.164Z,86.41
2022-12-06T04:19:58.176Z,86.64
2022-12-06T04:20:58.171Z,86.34
2022-12-06T04:21:58.179Z,86.21
2022-12-06T04:22:58.188Z,85.98
2022-12-06T04:23:58.171Z,85.98
2022-12-06T04:24:58.177Z,86.36
2022-12-06T04:25:58.176Z,87.58
2022-12-06T04:26:58.170Z,87.58
2022-12-06T04:27:58.191Z,87.11
2022-12-06T04:28:58.196Z,87.04
2022-12-06T04:29:58.395Z,86.77
2022-12-06T04:30:58.278Z,86.73
2022-12-06T04:31:58.302Z,86.6
2022-12-06T04:32:58.186Z,86.42
2022-12-06T04:33:58.180Z,86.75
2022-12-06T04:34:58.181Z,86.78
2022-12-06T04:35:58.273Z,86.76
2022-12-06T04:36:58.178Z,86.93
2022-12-06T04:37:58.189Z,86.52
2022-12-06T04:38:58.175Z,86.4
2022-12-06T04:39:58.645Z,86.31
2022-12-06T04:40:58.174Z,86.55
2022-12-06T04:41:58.180Z,86.35
2022-12-06T04:42:58.186Z,86.68
2022-12-06T04:43:58.171Z,86.78
2022-12-06T04:44:58.180Z,86.79
2022-12-06T04:45:58.189Z,86.62
2022-12-06T04:46:58.243Z,86.54
2022-12-06T04:47:58.211Z,86.4
2022-12-06T04:48:58.179Z,86.1
2022-12-06T04:49:58.566Z,86.1
2022-12-06T04:50:58.188Z,86.22
2022-12-06T04:51:58.183Z,85.96
2022-12-06T04:52:58.196Z,85.64
2022-12-06T04:53:58.179Z,85.29
2022-12-06T04:54:58.182Z,85.13
2022-12-06T04:55:58.173Z,85.04
2022-12-06T04:56:58.176Z,85.05
2022-12-06T04:57:58.201Z,84.75
2022-12-06T04:58:58.181Z,85.1
2022-12-06T04:59:58.543Z,85.81
2022-12-06T05:00:58.269Z,85.79
2022-12-06T05:01:58.175Z,85.73
2022-12-06T05:02:58.192Z,86.16
2022-12-06T05:03:58.188Z,86.12
2022-12-06T05:04:58.160Z,86.76
2022-12-06T05:05:58.158Z,86.7
2022-12-06T05:06:58.161Z,86.7
2022-12-06T05:07:58.216Z,86.97
2022-12-06T05:08:58.184Z,87.77
2022-12-06T05:09:58.541Z,88.03
2022-12-06T05:10:58.161Z,87.88
2022-12-06T05:11:58.157Z,88.02
2022-12-06T05:12:58.170Z,88.02
2022-12-06T05:13:58.168Z,88.16
2022-12-06T05:14:58.166Z,87.91
2022-12-06T05:15:58.228Z,88.54
2022-12-06T05:16:58.167Z,88.8
2022-12-06T05:17:58.217Z,88.41
2022-12-06T05:18:58.158Z,88.5
2022-12-06T05:19:58.376Z,88.27
2022-12-06T05:20:58.173Z,88.22
2022-12-06T05:21:58.199Z,89
2022-12-06T05:22:58.173Z,88.9
2022-12-06T05:23:58.160Z,89.08
2022-12-06T05:24:58.161Z,89.22
2022-12-06T05:25:58.186Z,90.48
2022-12-06T05:26:58.173Z,91.19
2022-12-06T05:27:58.171Z,91.15
2022-12-06T05:28:58.173Z,91.22
2022-12-06T05:29:58.446Z,91.72
2022-12-06T05:30:58.176Z,91.79
2022-12-06T05:31:58.228Z,92.6
2022-12-06T05:32:58.182Z,92.5
2022-12-06T05:33:58.181Z,92.76
2022-12-06T05:34:58.175Z,93.11
2022-12-06T05:35:58.181Z,93.51
2022-12-06T05:36:58.177Z,93.51
2022-12-06T05:37:58.179Z,93.7
2022-12-06T05:38:58.173Z,93.57
2022-12-06T05:39:58.386Z,93.58
2022-12-06T05:40:58.161Z,93.6
2022-12-06T05:41:58.172Z,93.97
2022-12-06T05:42:58.183Z,94.25
2022-12-06T05:43:58.187Z,94.55
2022-12-06T05:44:58.172Z,93.85
2022-12-06T05:45:58.248Z,94.07
2022-12-06T05:46:58.168Z,93.48
2022-12-06T05:47:58.179Z,93.64
2022-12-06T05:48:58.184Z,93.92
2022-12-06T05:49:58.458Z,93.92
2022-12-06T05:50:58.159Z,93.4
2022-12-06T05:52:03.618Z,93.73
2022-12-06T05:52:58.189Z,93.14
2022-12-06T05:53:58.178Z,93.21
2022-12-06T05:54:58.174Z,93.15
2022-12-06T05:55:58.169Z,93.16
2022-12-06T05:56:58.174Z,92.46
2022-12-06T05:57:58.196Z,92.52
2022-12-06T05:58:58.176Z,92.17
2022-12-06T05:59:58.498Z,91.94
2022-12-06T06:00:58.168Z,91.62
2022-12-06T06:01:58.385Z,91.99
2022-12-06T06:02:58.278Z,92.64
2022-12-06T06:03:58.183Z,92.78
2022-12-06T06:04:58.177Z,92.75
2022-12-06T06:05:58.184Z,92.28
2022-12-06T06:06:58.185Z,92.29
2022-12-06T06:07:58.266Z,92.07
2022-12-06T06:08:58.185Z,91.91
2022-12-06T06:09:58.406Z,92.21
2022-12-06T06:10:58.173Z,92.12
2022-12-06T06:11:58.169Z,92.52
2022-12-06T06:12:58.190Z,92.7
2022-12-06T06:13:58.178Z,92.7
2022-12-06T06:14:58.180Z,92.82
2022-12-06T06:15:58.196Z,92.66
2022-12-06T06:16:58.254Z,92.83
2022-12-06T06:17:58.188Z,92.52
2022-12-06T06:18:58.181Z,92.67
2022-12-06T06:19:58.173Z,92.67
2022-12-06T06:20:58.173Z,92.59
2022-12-06T06:21:58.159Z,92.82
2022-12-06T06:22:58.196Z,92.71
2022-12-06T06:23:58.178Z,92.71
2022-12-06T06:24:58.167Z,92.71
2022-12-06T06:25:58.159Z,92.62
2022-12-06T06:26:58.188Z,92.16
2022-12-06T06:27:58.186Z,92.05
2022-12-06T06:28:58.161Z,91.91
2022-12-06T06:29:58.494Z,91.72
2022-12-06T06:30:58.189Z,91.74
2022-12-06T06:31:58.210Z,92.19
2022-12-06T06:32:58.184Z,92.05
2022-12-06T06:33:58.156Z,92.35
2022-12-06T06:34:58.173Z,92.3
2022-12-06T06:35:58.161Z,92.4
2022-12-06T06:36:58.156Z,92.7
2022-12-06T06:37:58.187Z,92.53
2022-12-06T06:38:58.168Z,92.39
2022-12-06T06:39:58.606Z,92.2
2022-12-06T06:40:58.155Z,92.37
2022-12-06T06:41:58.170Z,92.57
2022-12-06T06:42:58.186Z,92.1
2022-12-06T06:43:58.156Z,92.08
2022-12-06T06:44:58.163Z,91.35
2022-12-06T06:45:58.259Z,91.26
2022-12-06T06:46:58.169Z,91.36
2022-12-06T06:47:58.180Z,91.29
2022-12-06T06:48:58.181Z,91.12
2022-12-06T06:49:58.389Z,91.11
2022-12-06T06:50:58.192Z,91.06
2022-12-06T06:51:58.167Z,90.83
2022-12-06T06:52:58.187Z,90.37
2022-12-06T06:53:58.170Z,90.26
2022-12-06T06:54:58.173Z,90.34
2022-12-06T06:55:58.173Z,90.36
2022-12-06T06:56:58.184Z,90.2
2022-12-06T06:57:58.196Z,90.15
2022-12-06T06:58:58.185Z,89.68
2022-12-06T06:59:58.419Z,89.54
2022-12-06T07:00:58.293Z,89.31
2022-12-06T07:01:58.266Z,89.5
2022-12-06T07:02:58.262Z,89.42
2022-12-06T07:03:58.190Z,89.14
2022-12-06T07:04:58.208Z,88.95
2022-12-06T07:05:58.172Z,88.95
2022-12-06T07:06:58.166Z,88.95
2022-12-06T07:07:58.285Z,88.22
2022-12-06T07:08:58.171Z,88.4
2022-12-06T07:09:58.432Z,87.92
2022-12-06T07:10:58.183Z,87.79
2022-12-06T07:11:58.167Z,87.79
2022-12-06T07:12:58.195Z,88.49
2022-12-06T07:13:58.178Z,88.43
2022-12-06T07:14:58.174Z,88.5
2022-12-06T07:15:58.184Z,88.6
2022-12-06T07:16:58.201Z,88.5
2022-12-06T07:17:58.196Z,88.88
2022-12-06T07:18:58.184Z,88.25
2022-12-06T07:19:58.403Z,88.15
2022-12-06T07:20:58.175Z,87.58
2022-12-06T07:21:58.171Z,88.01
2022-12-06T07:22:58.197Z,87.5
2022-12-06T07:23:58.190Z,87.73
2022-12-06T07:24:58.187Z,88.12
2022-12-06T07:25:58.189Z,87.79
2022-12-06T07:26:58.175Z,87.56
2022-12-06T07:27:58.204Z,87.74
2022-12-06T07:28:58.188Z,87.3
2022-12-06T07:29:58.421Z,86.98
2022-12-06T07:30:58.274Z,86.81
2022-12-06T07:31:58.174Z,87.07
2022-12-06T07:32:58.185Z,87.37
2022-12-06T07:33:58.176Z,87.47
2022-12-06T07:34:58.171Z,87.22
2022-12-06T07:36:12.442Z,86.91
2022-12-06T07:36:58.185Z,86.78
2022-12-06T07:37:58.191Z,86.54
2022-12-06T07:38:58.177Z,86.88
2022-12-06T07:39:58.496Z,86.68
2022-12-06T07:41:04.839Z,86.4
2022-12-06T07:41:58.160Z,86.9
2022-12-06T07:42:58.245Z,87
2022-12-06T07:43:58.160Z,86.65
2022-12-06T07:45:01.615Z,86.35
2022-12-06T07:45:58.240Z,86.65
2022-12-06T07:46:58.153Z,86.16
2022-12-06T07:47:58.187Z,85.93
2022-12-06T07:48:58.165Z,85.74
2022-12-06T07:49:58.585Z,86.33
2022-12-06T07:50:58.168Z,86.33
2022-12-06T07:51:58.157Z,86.42
2022-12-06T07:52:58.193Z,86.66
2022-12-06T07:53:58.160Z,86.63
2022-12-06T07:54:58.184Z,86.27
2022-12-06T07:55:58.161Z,86.27
2022-12-06T07:56:58.155Z,85.87
2022-12-06T07:57:58.172Z,85.74
2022-12-06T07:58:58.164Z,85.54
2022-12-06T07:59:58.496Z,85.24
2022-12-06T08:00:58.172Z,85.2
2022-12-06T08:01:58.208Z,85.42
2022-12-06T08:02:58.196Z,85.27
2022-12-06T08:03:58.209Z,85.88
2022-12-06T08:04:58.197Z,86.05
2022-12-06T08:05:58.183Z,85.54
2022-12-06T08:06:58.172Z,85.45
2022-12-06T08:07:58.297Z,85.92
2022-12-06T08:08:58.193Z,85.62
2022-12-06T08:09:58.612Z,85.28
2022-12-06T08:10:58.168Z,85.46
2022-12-06T08:11:58.183Z,85.07
2022-12-06T08:12:58.200Z,84.99
2022-12-06T08:13:58.198Z,85.08
2022-12-06T08:14:59.773Z,84.85
2022-12-06T08:15:58.228Z,84.7
2022-12-06T08:16:58.215Z,84.83
2022-12-06T08:17:58.190Z,84.94
2022-12-06T08:18:58.187Z,84.62
2022-12-06T08:19:58.415Z,83.93
2022-12-06T08:20:58.178Z,84.54
2022-12-06T08:21:58.161Z,85.09
2022-12-06T08:22:58.195Z,84.59
2022-12-06T08:23:58.173Z,84.73
2022-12-06T08:24:58.172Z,85.01
2022-12-06T08:25:58.186Z,85.2
2022-12-06T08:26:58.175Z,84.95
2022-12-06T08:27:58.205Z,84.99
2022-12-06T08:28:58.175Z,84.69
2022-12-06T08:29:58.422Z,85.01
2022-12-06T08:31:02.872Z,84.88
2022-12-06T08:31:58.190Z,85.42
2022-12-06T08:32:58.206Z,85.78
2022-12-06T08:33:58.174Z,85.69
2022-12-06T08:34:58.178Z,86.11
2022-12-06T08:35:58.185Z,86.37
2022-12-06T08:37:03.167Z,86.29
2022-12-06T08:37:58.188Z,86.53
2022-12-06T08:38:58.193Z,86.64
2022-12-06T08:39:58.589Z,86.47
2022-12-06T08:40:58.182Z,86.47
2022-12-06T08:41:58.250Z,87.12
2022-12-06T08:42:58.185Z,87.01
2022-12-06T08:43:58.172Z,87.15
2022-12-06T08:44:58.176Z,87.33
2022-12-06T08:45:58.268Z,87.3
2022-12-06T08:46:58.175Z,87.66
2022-12-06T08:47:58.183Z,87.88
2022-12-06T08:48:58.177Z,87.95
2022-12-06T08:49:58.421Z,87.53
2022-12-06T08:50:58.161Z,87.71
2022-12-06T08:51:58.176Z,87.57
2022-12-06T08:52:58.178Z,88.11
2022-12-06T08:53:58.156Z,88.05
2022-12-06T08:54:58.163Z,87.75
2022-12-06T08:56:02.587Z,87.6
2022-12-06T08:56:58.173Z,87.6
2022-12-06T08:57:58.188Z,87.72
2022-12-06T08:58:58.160Z,87.8
2022-12-06T08:59:58.419Z,87.9
2022-12-06T09:00:58.206Z,88.03
2022-12-06T09:01:58.359Z,87.86
2022-12-06T09:02:58.211Z,87.93
2022-12-06T09:03:58.358Z,87.72
2022-12-06T09:04:58.248Z,87.57
2022-12-06T09:05:58.161Z,87.67
2022-12-06T09:06:58.159Z,87.76
2022-12-06T09:07:58.232Z,88.03
2022-12-06T09:08:58.161Z,87.73
2022-12-06T09:09:58.356Z,87.43
2022-12-06T09:10:58.158Z,87.12
2022-12-06T09:11:58.171Z,87.78
2022-12-06T09:12:58.187Z,88.38
2022-12-06T09:13:58.164Z,88.76
2022-12-06T09:14:58.158Z,89.26
2022-12-06T09:15:58.254Z,89.37
2022-12-06T09:16:58.236Z,89.61
2022-12-06T09:17:58.185Z,88.87
2022-12-06T09:18:58.166Z,89.01
2022-12-06T09:20:03.765Z,89.39
2022-12-06T09:20:58.166Z,89.3
2022-12-06T09:21:58.174Z,89.36
2022-12-06T09:22:58.192Z,89.14
2022-12-06T09:23:58.175Z,88.61
2022-12-06T09:24:58.179Z,88.78
2022-12-06T09:25:58.182Z,88.74
2022-12-06T09:26:58.169Z,89.26
2022-12-06T09:27:58.187Z,89.17
2022-12-06T09:28:58.173Z,88.98
2022-12-06T09:29:58.431Z,89.19
2022-12-06T09:30:58.254Z,89.12
2022-12-06T09:31:58.182Z,89.05
2022-12-06T09:32:58.188Z,88.81
2022-12-06T09:33:58.171Z,89.13
2022-12-06T09:34:58.175Z,88.94
2022-12-06T09:35:58.187Z,89.4
2022-12-06T09:36:58.173Z,89
2022-12-06T09:37:58.186Z,88.91
2022-12-06T09:38:58.208Z,88.58
2022-12-06T09:39:58.312Z,88.98
2022-12-06T09:40:58.179Z,88.77
2022-12-06T09:41:58.181Z,88.76
2022-12-06T09:42:58.226Z,88.25
2022-12-06T09:43:58.185Z,88.43
2022-12-06T09:44:58.178Z,88.58
2022-12-06T09:45:58.232Z,88.79
2022-12-06T09:46:58.208Z,88.36
2022-12-06T09:47:58.194Z,87.75
2022-12-06T09:48:58.184Z,87.54
2022-12-06T09:49:58.539Z,87.93
2022-12-06T09:50:58.182Z,88.17
2022-12-06T09:51:58.171Z,87.84
2022-12-06T09:52:58.195Z,87.25
2022-12-06T09:53:58.165Z,87.29
2022-12-06T09:55:00.529Z,87.16
2022-12-06T09:55:58.200Z,86.81
2022-12-06T09:56:58.177Z,86.36
2022-12-06T09:57:58.187Z,85.59
2022-12-06T09:58:58.180Z,85.83
2022-12-06T09:59:58.527Z,86.1
2022-12-06T10:00:58.189Z,86.47
2022-12-06T10:01:58.236Z,85.95
2022-12-06T10:02:58.285Z,85.79
2022-12-06T10:03:58.179Z,85.54
2022-12-06T10:04:58.174Z,85.33
2022-12-06T10:05:58.194Z,85.2
2022-12-06T10:06:58.165Z,85.37
2022-12-06T10:07:58.267Z,85.2
2022-12-06T10:08:58.311Z,84.9
2022-12-06T10:09:58.396Z,85.38
2022-12-06T10:10:58.156Z,86
2022-12-06T10:11:58.166Z,86.3
2022-12-06T10:12:58.186Z,86.29
2022-12-06T10:13:58.156Z,86.15
2022-12-06T10:14:58.167Z,86.07
2022-12-06T10:15:58.237Z,86.48
2022-12-06T10:16:58.216Z,86.04
2022-12-06T10:17:58.202Z,85.8
2022-12-06T10:18:58.159Z,85.93
2022-12-06T10:19:58.404Z,86.12
2022-12-06T10:20:58.163Z,86.28
2022-12-06T10:21:58.164Z,86.08
2022-12-06T10:22:58.183Z,86.09
2022-12-06T10:24:01.970Z,86.08
2022-12-06T10:24:58.158Z,86.31
2022-12-06T10:25:58.163Z,86.24
2022-12-06T10:26:58.161Z,86.08
2022-12-06T10:27:58.177Z,86.01
2022-12-06T10:28:58.168Z,85.84
2022-12-06T10:29:58.556Z,85.53
2022-12-06T10:30:58.260Z,85.39
2022-12-06T10:31:58.286Z,85.27
2022-12-06T10:32:58.191Z,84.99
2022-12-06T10:33:58.181Z,84.8
2022-12-06T10:34:58.190Z,84.63
2022-12-06T10:35:58.174Z,84.63
2022-12-06T10:36:58.174Z,84.82
2022-12-06T10:37:58.182Z,85.04
2022-12-06T10:38:58.176Z,85.04
2022-12-06T10:39:58.176Z,85.32
2022-12-06T10:40:58.172Z,85.68
2022-12-06T10:41:58.170Z,86.24
2022-12-06T10:42:58.201Z,86.37
2022-12-06T10:43:58.184Z,86.19
2022-12-06T10:44:58.177Z,86.14
2022-12-06T10:45:58.191Z,85.81
2022-12-06T10:46:58.349Z,86.71
2022-12-06T10:47:58.209Z,87
2022-12-06T10:48:58.174Z,87.53
2022-12-06T10:49:58.393Z,87.39
2022-12-06T10:50:58.178Z,86.96
2022-12-06T10:51:58.191Z,87
2022-12-06T10:53:01.867Z,86.83
2022-12-06T10:53:58.178Z,86.9
2022-12-06T10:54:58.173Z,87.31
2022-12-06T10:55:58.171Z,87.48
2022-12-06T10:56:58.182Z,87.25
2022-12-06T10:57:58.198Z,87.34
2022-12-06T10:58:58.202Z,88.07
2022-12-06T11:00:01.585Z,88.52
2022-12-06T11:00:58.277Z,88.39
2022-12-06T11:01:58.262Z,88.55
2022-12-06T11:02:58.192Z,88.18
2022-12-06T11:03:58.174Z,88.41
2022-12-06T11:04:58.175Z,88.16
2022-12-06T11:05:58.186Z,87.76
2022-12-06T11:06:58.241Z,88.28
2022-12-06T11:07:58.239Z,88.46
2022-12-06T11:08:58.175Z,88.63
2022-12-06T11:09:58.461Z,88.46
2022-12-06T11:10:58.172Z,88.24
2022-12-06T11:11:58.172Z,88.5
2022-12-06T11:12:58.187Z,88.65
2022-12-06T11:13:58.177Z,88.54
2022-12-06T11:14:58.178Z,88.71
2022-12-06T11:15:58.259Z,88.63
2022-12-06T11:16:58.173Z,88.71
2022-12-06T11:18:02.427Z,88.33
2022-12-06T11:18:58.174Z,88.33
2022-12-06T11:19:58.379Z,87.93
2022-12-06T11:20:58.160Z,87.88
2022-12-06T11:21:58.161Z,88.69
2022-12-06T11:22:58.186Z,88.22
2022-12-06T11:23:58.166Z,88.6
2022-12-06T11:24:58.167Z,88.53
2022-12-06T11:25:58.156Z,88.12
2022-12-06T11:26:58.156Z,87.91
2022-12-06T11:27:58.193Z,87.97
2022-12-06T11:28:58.165Z,88.28
2022-12-06T11:29:58.304Z,88.8
2022-12-06T11:30:58.459Z,89.33
2022-12-06T11:31:58.193Z,89.28
2022-12-06T11:32:58.214Z,88.83
2022-12-06T11:33:58.160Z,88.82
2022-12-06T11:34:58.157Z,89.75
2022-12-06T11:35:58.158Z,89.62
2022-12-06T11:37:00.076Z,89.51
2022-12-06T11:37:58.186Z,89.84
2022-12-06T11:38:58.169Z,89.74
2022-12-06T11:39:58.369Z,90.12
2022-12-06T11:40:58.157Z,90.03
2022-12-06T11:41:58.176Z,89.78
2022-12-06T11:42:58.176Z,89.62
2022-12-06T11:43:58.185Z,89.28
2022-12-06T11:44:58.176Z,89.41
2022-12-06T11:45:58.202Z,88.84
2022-12-06T11:46:58.222Z,88.84
2022-12-06T11:47:58.186Z,88.93
2022-12-06T11:48:58.199Z,88.75
2022-12-06T11:50:02.745Z,89.26
2022-12-06T11:50:58.181Z,88.84
2022-12-06T11:51:58.173Z,88.85
2022-12-06T11:52:58.186Z,88.33
2022-12-06T11:53:58.185Z,88.34
2022-12-06T11:54:58.581Z,88.34
2022-12-06T11:55:58.180Z,88.41
2022-12-06T11:56:58.171Z,88.31
2022-12-06T11:57:58.187Z,88.04
2022-12-06T11:58:58.170Z,88.25
2022-12-06T11:59:58.336Z,87.65
2022-12-06T12:00:58.195Z,87.41
2022-12-06T12:01:58.280Z,87.4
2022-12-06T12:02:58.278Z,87.27
2022-12-06T12:03:58.175Z,87.13
2022-12-06T12:04:58.603Z,86.9
2022-12-06T12:05:58.216Z,86.57
2022-12-06T12:06:58.172Z,86.03
2022-12-06T12:07:58.212Z,85.95
2022-12-06T12:08:58.176Z,85.92
2022-12-06T12:09:58.171Z,86.18
2022-12-06T12:10:58.173Z,85.88
2022-12-06T12:11:58.173Z,85.79
2022-12-06T12:12:58.187Z,85.43
2022-12-06T12:13:58.196Z,84.97
2022-12-06T12:14:58.176Z,84.78
2022-12-06T12:15:58.190Z,85
2022-12-06T12:16:58.299Z,85
2022-12-06T12:17:58.187Z,85.19
2022-12-06T12:18:58.183Z,85.33
2022-12-06T12:19:58.175Z,85.03
2022-12-06T12:20:58.178Z,85.27
2022-12-06T12:21:58.173Z,85.1
2022-12-06T12:22:58.189Z,85.45
2022-12-06T12:23:58.170Z,85.32
2022-12-06T12:25:19.745Z,84.93
2022-12-06T12:25:58.178Z,85.01
2022-12-06T12:26:58.174Z,84.84
2022-12-06T12:27:58.192Z,84.88
2022-12-06T12:28:58.159Z,84.6
2022-12-06T12:29:58.161Z,84.77
2022-12-06T12:30:58.183Z,84.66
2022-12-06T12:31:58.258Z,84.58
2022-12-06T12:32:58.172Z,84.74
2022-12-06T12:33:58.157Z,84.89
2022-12-06T12:34:58.325Z,93.51
2022-12-06T12:35:58.202Z,84.79
2022-12-06T12:36:58.160Z,84.55
2022-12-06T12:37:58.184Z,84.15
2022-12-06T12:38:58.275Z,83.71
2022-12-06T12:39:58.156Z,84.02
2022-12-06T12:40:58.175Z,84.23
2022-12-06T12:41:58.171Z,84.6
2022-12-06T12:42:58.185Z,84.52
2022-12-06T12:44:20.811Z,84.76
2022-12-06T12:44:58.537Z,84.77
2022-12-06T12:46:02.415Z,84.81
2022-12-06T12:46:58.155Z,84.81
2022-12-06T12:47:58.173Z,85.36
2022-12-06T12:48:58.163Z,85.47
2022-12-06T12:49:58.180Z,85.56
2022-12-06T12:50:58.161Z,85.51
2022-12-06T12:51:58.166Z,85.76
2022-12-06T12:52:58.191Z,85.88
2022-12-06T12:53:58.170Z,85.75
2022-12-06T12:54:58.477Z,85.56
2022-12-06T12:55:58.176Z,85.26
2022-12-06T12:56:58.174Z,85.73